ASA375 KSEA-KSAN
Flight info
| Callsign | ASA375 |
|---|---|
| Flight time | 2h 20m |
| Altitude | 35000 |
| Route | SUMMA2 SUMMA PAAGE Q11 PASKE HUULK COMIX2 |
| Aircraft | B739/M-SDE2E3FGHIRWXY/LB1 |
Departure
| Time | 2026-04-24 04:10 |
|---|---|
| Airport | Seattle–Tacoma International Airport (KSEA) |
Arrival
| Time | 2026-04-24 06:30 |
|---|---|
| Airport | San Diego International Airport (KSAN) |
| Time | Latitude | Longitude | Altitude | Speed | Heading |
|---|---|---|---|---|---|
| 2026-04-24 03:52 | 47.44974 | -122.30383 | 409 ft | 0 kts | 158° |
| 2026-04-24 04:00 | 47.44984 | -122.30389 | 409 ft | 4 kts | 163° |
| 2026-04-24 04:01 | 47.45009 | -122.30394 | 407 ft | 4 kts | 191° |
| 2026-04-24 04:01 | 47.45026 | -122.30386 | 408 ft | 4 kts | 214° |
| 2026-04-24 04:01 | 47.45041 | -122.30359 | 412 ft | 4 kts | 264° |
| 2026-04-24 04:01 | 47.45042 | -122.30351 | 412 ft | 1 kts | 272° |
| 2026-04-24 04:03 | 47.45042 | -122.30350 | 412 ft | 0 kts | 272° |
| 2026-04-24 04:04 | 47.45042 | -122.30351 | 407 ft | 0 kts | 272° |
| 2026-04-24 04:04 | 47.45043 | -122.30390 | 413 ft | 6 kts | 272° |
| 2026-04-24 04:05 | 47.45044 | -122.30432 | 410 ft | 7 kts | 272° |
| 2026-04-24 04:05 | 47.45046 | -122.30558 | 411 ft | 16 kts | 268° |
| 2026-04-24 04:05 | 47.44970 | -122.30628 | 409 ft | 15 kts | 180° |
| 2026-04-24 04:05 | 47.44851 | -122.30630 | 402 ft | 20 kts | 180° |
| 2026-04-24 04:06 | 47.44697 | -122.30631 | 401 ft | 23 kts | 180° |
| 2026-04-24 04:06 | 47.44538 | -122.30633 | 394 ft | 23 kts | 180° |
| 2026-04-24 04:06 | 47.44384 | -122.30634 | 393 ft | 22 kts | 180° |
| 2026-04-24 04:06 | 47.44233 | -122.30635 | 388 ft | 21 kts | 180° |
| 2026-04-24 04:07 | 47.44087 | -122.30636 | 385 ft | 21 kts | 180° |
| 2026-04-24 04:07 | 47.43930 | -122.30639 | 381 ft | 25 kts | 180° |
| 2026-04-24 04:07 | 47.43737 | -122.30641 | 375 ft | 30 kts | 180° |
| 2026-04-24 04:07 | 47.43575 | -122.30577 | 370 ft | 24 kts | 153° |
| 2026-04-24 04:08 | 47.43410 | -122.30562 | 365 ft | 24 kts | 180° |
| 2026-04-24 04:08 | 47.43263 | -122.30567 | 360 ft | 19 kts | 192° |
| 2026-04-24 04:08 | 47.43178 | -122.30689 | 357 ft | 18 kts | 260° |
| 2026-04-24 04:08 | 47.43226 | -122.30805 | 362 ft | 15 kts | 360° |
| 2026-04-24 04:09 | 47.43421 | -122.30801 | 364 ft | 55 kts | 359° |
| 2026-04-24 04:09 | 47.44023 | -122.30798 | 383 ft | 116 kts | 0° |
| 2026-04-24 04:09 | 47.45000 | -122.30788 | 409 ft | 163 kts | 0° |
| 2026-04-24 04:09 | 47.46133 | -122.30781 | 956 ft | 159 kts | 0° |
| 2026-04-24 04:10 | 47.47298 | -122.30806 | 1377 ft | 176 kts | 359° |
| 2026-04-24 04:10 | 47.48531 | -122.30850 | 1968 ft | 178 kts | 359° |
| 2026-04-24 04:10 | 47.49816 | -122.30886 | 2333 ft | 195 kts | 359° |
| 2026-04-24 04:11 | 47.52832 | -122.30954 | 2741 ft | 238 kts | 359° |
| 2026-04-24 04:11 | 47.54560 | -122.30962 | 3102 ft | 255 kts | 359° |
| 2026-04-24 04:11 | 47.56349 | -122.30971 | 3796 ft | 259 kts | 359° |
| 2026-04-24 04:11 | 47.58124 | -122.30742 | 4520 ft | 262 kts | 17° |
| 2026-04-24 04:12 | 47.59668 | -122.29339 | 5235 ft | 265 kts | 47° |
| 2026-04-24 04:12 | 47.60587 | -122.26969 | 5925 ft | 270 kts | 75° |
| 2026-04-24 04:12 | 47.60656 | -122.24199 | 6595 ft | 275 kts | 102° |
| 2026-04-24 04:12 | 47.59843 | -122.21652 | 7267 ft | 278 kts | 130° |
| 2026-04-24 04:13 | 47.58290 | -122.19944 | 7891 ft | 282 kts | 158° |
| 2026-04-24 04:13 | 47.56393 | -122.19161 | 8540 ft | 286 kts | 169° |
| 2026-04-24 04:13 | 47.54411 | -122.18698 | 9177 ft | 290 kts | 173° |
| 2026-04-24 04:13 | 47.52424 | -122.18314 | 9792 ft | 294 kts | 173° |
| 2026-04-24 04:14 | 47.50376 | -122.17925 | 10333 ft | 303 kts | 173° |
| 2026-04-24 04:14 | 47.48214 | -122.17503 | 10477 ft | 325 kts | 172° |
| 2026-04-24 04:14 | 47.45909 | -122.17035 | 10728 ft | 342 kts | 172° |
| 2026-04-24 04:14 | 47.43526 | -122.16538 | 11213 ft | 350 kts | 172° |
| 2026-04-24 04:15 | 47.41103 | -122.16021 | 11835 ft | 353 kts | 172° |
| 2026-04-24 04:15 | 47.38656 | -122.15492 | 12443 ft | 358 kts | 172° |
| 2026-04-24 04:15 | 47.36177 | -122.14953 | 13019 ft | 364 kts | 172° |
| 2026-04-24 04:15 | 47.33677 | -122.14407 | 13525 ft | 372 kts | 172° |
| 2026-04-24 04:16 | 47.31095 | -122.13840 | 14039 ft | 379 kts | 172° |
| 2026-04-24 04:16 | 47.28465 | -122.13262 | 14604 ft | 385 kts | 172° |
| 2026-04-24 04:16 | 47.25792 | -122.12675 | 15135 ft | 392 kts | 172° |
| 2026-04-24 04:16 | 47.23072 | -122.12078 | 15700 ft | 398 kts | 173° |
| 2026-04-24 04:17 | 47.20311 | -122.11474 | 16239 ft | 404 kts | 173° |
| 2026-04-24 04:17 | 47.17510 | -122.10861 | 16774 ft | 410 kts | 173° |
| 2026-04-24 04:17 | 47.14666 | -122.10239 | 17308 ft | 416 kts | 173° |
| 2026-04-24 04:17 | 47.11790 | -122.09611 | 17819 ft | 421 kts | 173° |
| 2026-04-24 04:18 | 47.08908 | -122.08937 | 18242 ft | 430 kts | 171° |
| 2026-04-24 04:18 | 47.05945 | -122.08052 | 18675 ft | 438 kts | 169° |
| 2026-04-24 04:18 | 47.02969 | -122.07058 | 19282 ft | 440 kts | 168° |
| 2026-04-24 04:18 | 46.99986 | -122.06029 | 19896 ft | 441 kts | 168° |
| 2026-04-24 04:19 | 46.96988 | -122.04998 | 20457 ft | 444 kts | 168° |
| 2026-04-24 04:19 | 46.93977 | -122.03979 | 20998 ft | 446 kts | 168° |
| 2026-04-24 04:19 | 46.90938 | -122.02967 | 21526 ft | 449 kts | 168° |
| 2026-04-24 04:19 | 46.87878 | -122.01960 | 22021 ft | 452 kts | 169° |
| 2026-04-24 04:20 | 46.84837 | -122.00969 | 22550 ft | 455 kts | 169° |
| 2026-04-24 04:20 | 46.81743 | -121.99965 | 23070 ft | 457 kts | 169° |
| 2026-04-24 04:20 | 46.78629 | -121.98958 | 23592 ft | 459 kts | 169° |
| 2026-04-24 04:20 | 46.75493 | -121.97947 | 23895 ft | 466 kts | 169° |
| 2026-04-24 04:21 | 46.72299 | -121.96919 | 24249 ft | 472 kts | 169° |
| 2026-04-24 04:21 | 46.69095 | -121.95886 | 24832 ft | 471 kts | 169° |
| 2026-04-24 04:21 | 46.65897 | -121.94855 | 25340 ft | 472 kts | 169° |
| 2026-04-24 04:21 | 46.62679 | -121.93821 | 25752 ft | 475 kts | 169° |
| 2026-04-24 04:22 | 46.59441 | -121.92781 | 26172 ft | 478 kts | 169° |
| 2026-04-24 04:22 | 46.56227 | -121.91749 | 26563 ft | 480 kts | 169° |
| 2026-04-24 04:22 | 46.52967 | -121.90703 | 26943 ft | 482 kts | 169° |
| 2026-04-24 04:22 | 46.49677 | -121.89649 | 27315 ft | 485 kts | 169° |
| 2026-04-24 04:23 | 46.46372 | -121.88592 | 27702 ft | 487 kts | 169° |
| 2026-04-24 04:23 | 46.43054 | -121.87531 | 28085 ft | 489 kts | 169° |
| 2026-04-24 04:23 | 46.39723 | -121.86468 | 28471 ft | 492 kts | 169° |
| 2026-04-24 04:23 | 46.36379 | -121.85402 | 28827 ft | 493 kts | 169° |
| 2026-04-24 04:24 | 46.33025 | -121.84335 | 29174 ft | 495 kts | 169° |
| 2026-04-24 04:24 | 46.29649 | -121.83262 | 29489 ft | 498 kts | 169° |
| 2026-04-24 04:24 | 46.26298 | -121.82199 | 29789 ft | 501 kts | 169° |
| 2026-04-24 04:24 | 46.22895 | -121.81122 | 30083 ft | 503 kts | 169° |
| 2026-04-24 04:25 | 46.19465 | -121.80036 | 30354 ft | 505 kts | 169° |
| 2026-04-24 04:25 | 46.16035 | -121.78951 | 30671 ft | 506 kts | 169° |
| 2026-04-24 04:25 | 46.12583 | -121.77860 | 30950 ft | 509 kts | 169° |
| 2026-04-24 04:25 | 46.09125 | -121.76771 | 31258 ft | 510 kts | 169° |
| 2026-04-24 04:26 | 46.05662 | -121.75679 | 31616 ft | 509 kts | 169° |
| 2026-04-24 04:26 | 46.02251 | -121.74604 | 31965 ft | 508 kts | 169° |
| 2026-04-24 04:26 | 45.98791 | -121.73516 | 32244 ft | 509 kts | 169° |
| 2026-04-24 04:26 | 45.95330 | -121.72430 | 32506 ft | 510 kts | 169° |
| 2026-04-24 04:27 | 45.91867 | -121.71346 | 32826 ft | 509 kts | 169° |
| 2026-04-24 04:27 | 45.88414 | -121.70267 | 33176 ft | 509 kts | 169° |
| 2026-04-24 04:27 | 45.84949 | -121.69186 | 33434 ft | 509 kts | 169° |
| 2026-04-24 04:27 | 45.81494 | -121.68107 | 33698 ft | 509 kts | 169° |
| 2026-04-24 04:28 | 45.78034 | -121.67028 | 33998 ft | 508 kts | 169° |
| 2026-04-24 04:28 | 45.74574 | -121.65950 | 34233 ft | 509 kts | 169° |
| 2026-04-24 04:28 | 45.71111 | -121.64873 | 34470 ft | 508 kts | 169° |
| 2026-04-24 04:28 | 45.67716 | -121.63818 | 34834 ft | 505 kts | 169° |
| 2026-04-24 04:29 | 45.64287 | -121.62754 | 35136 ft | 504 kts | 169° |
| 2026-04-24 04:29 | 45.60873 | -121.61696 | 35128 ft | 503 kts | 169° |
| 2026-04-24 04:29 | 45.54085 | -121.59598 | 35149 ft | 495 kts | 169° |
| 2026-04-24 04:30 | 45.47389 | -121.57534 | 35153 ft | 491 kts | 169° |
| 2026-04-24 04:30 | 45.40776 | -121.55497 | 35163 ft | 488 kts | 169° |
| 2026-04-24 04:31 | 45.34150 | -121.53469 | 35174 ft | 487 kts | 169° |
| 2026-04-24 04:31 | 45.27524 | -121.51438 | 35154 ft | 486 kts | 169° |
| 2026-04-24 04:32 | 45.20910 | -121.49416 | 35137 ft | 486 kts | 169° |
| 2026-04-24 04:32 | 45.14293 | -121.47399 | 35140 ft | 487 kts | 169° |
| 2026-04-24 04:33 | 45.07711 | -121.45398 | 35142 ft | 488 kts | 169° |
| 2026-04-24 04:33 | 45.01077 | -121.43386 | 35133 ft | 488 kts | 169° |
| 2026-04-24 04:34 | 44.94430 | -121.41374 | 35133 ft | 489 kts | 169° |
| 2026-04-24 04:34 | 44.87775 | -121.39364 | 35129 ft | 489 kts | 169° |
| 2026-04-24 04:35 | 44.81125 | -121.37363 | 35125 ft | 488 kts | 169° |
| 2026-04-24 04:35 | 44.74531 | -121.35381 | 35134 ft | 487 kts | 169° |
| 2026-04-24 04:36 | 44.67915 | -121.33396 | 35124 ft | 485 kts | 169° |
| 2026-04-24 04:36 | 44.61318 | -121.31425 | 35128 ft | 484 kts | 169° |
| 2026-04-24 04:37 | 44.54747 | -121.29464 | 35122 ft | 482 kts | 169° |
| 2026-04-24 04:37 | 44.48236 | -121.27525 | 35121 ft | 481 kts | 169° |
| 2026-04-24 04:38 | 44.41701 | -121.25583 | 35106 ft | 480 kts | 169° |
| 2026-04-24 04:38 | 44.35175 | -121.23650 | 35102 ft | 480 kts | 169° |
| 2026-04-24 04:39 | 44.28645 | -121.21720 | 35083 ft | 479 kts | 169° |
| 2026-04-24 04:39 | 44.22125 | -121.19795 | 35075 ft | 479 kts | 169° |
| 2026-04-24 04:40 | 44.15654 | -121.17891 | 35094 ft | 478 kts | 169° |
| 2026-04-24 04:40 | 44.09141 | -121.15978 | 35080 ft | 478 kts | 169° |
| 2026-04-24 04:41 | 44.02627 | -121.14069 | 35087 ft | 478 kts | 169° |
| 2026-04-24 04:41 | 43.96108 | -121.12162 | 35101 ft | 478 kts | 169° |
| 2026-04-24 04:42 | 43.89649 | -121.10277 | 35088 ft | 477 kts | 169° |
| 2026-04-24 04:42 | 43.83152 | -121.08551 | 35084 ft | 474 kts | 172° |
| 2026-04-24 04:43 | 43.76657 | -121.07040 | 35071 ft | 472 kts | 172° |
| 2026-04-24 04:43 | 43.70191 | -121.05531 | 35076 ft | 470 kts | 172° |
| 2026-04-24 04:44 | 43.63802 | -121.04007 | 35089 ft | 468 kts | 172° |
| 2026-04-24 04:44 | 43.57395 | -121.02471 | 35112 ft | 467 kts | 172° |
| 2026-04-24 04:45 | 43.51004 | -121.00940 | 35113 ft | 466 kts | 172° |
| 2026-04-24 04:45 | 43.44608 | -120.99415 | 35116 ft | 467 kts | 172° |
| 2026-04-24 04:46 | 43.38204 | -120.97891 | 35113 ft | 467 kts | 172° |
| 2026-04-24 04:46 | 43.31836 | -120.96378 | 35113 ft | 468 kts | 172° |
| 2026-04-24 04:47 | 43.25412 | -120.94854 | 35109 ft | 468 kts | 172° |
| 2026-04-24 04:47 | 43.18989 | -120.93334 | 35102 ft | 469 kts | 172° |
| 2026-04-24 04:48 | 43.12556 | -120.91788 | 35101 ft | 469 kts | 172° |
| 2026-04-24 04:48 | 43.06171 | -120.90220 | 35101 ft | 469 kts | 172° |
| 2026-04-24 04:49 | 42.99756 | -120.88647 | 35098 ft | 469 kts | 172° |
| 2026-04-24 04:49 | 42.93335 | -120.87082 | 35093 ft | 468 kts | 172° |
| 2026-04-24 04:50 | 42.86922 | -120.85525 | 35083 ft | 467 kts | 172° |
| 2026-04-24 04:50 | 42.80570 | -120.83985 | 35081 ft | 466 kts | 172° |
| 2026-04-24 04:51 | 42.74202 | -120.82445 | 35078 ft | 464 kts | 172° |
| 2026-04-24 04:51 | 42.67866 | -120.80916 | 35079 ft | 461 kts | 172° |
| 2026-04-24 04:52 | 42.61560 | -120.79396 | 35087 ft | 460 kts | 172° |
| 2026-04-24 04:52 | 42.55315 | -120.77895 | 35084 ft | 458 kts | 172° |
| 2026-04-24 04:53 | 42.49039 | -120.76389 | 35082 ft | 457 kts | 172° |
| 2026-04-24 04:53 | 42.42779 | -120.74891 | 35089 ft | 457 kts | 172° |
| 2026-04-24 04:54 | 42.36511 | -120.73395 | 35089 ft | 457 kts | 172° |
| 2026-04-24 04:54 | 42.30287 | -120.71910 | 35084 ft | 457 kts | 172° |
| 2026-04-24 04:55 | 42.24021 | -120.70418 | 35083 ft | 457 kts | 172° |
| 2026-04-24 04:55 | 42.17752 | -120.68930 | 35079 ft | 458 kts | 172° |
| 2026-04-24 04:56 | 42.11479 | -120.67443 | 35081 ft | 458 kts | 172° |
| 2026-04-24 04:56 | 42.05210 | -120.65962 | 35078 ft | 458 kts | 172° |
| 2026-04-24 04:57 | 41.98979 | -120.64490 | 35081 ft | 457 kts | 172° |
| 2026-04-24 04:57 | 41.92723 | -120.63016 | 35091 ft | 456 kts | 173° |
| 2026-04-24 04:58 | 41.86467 | -120.61545 | 35078 ft | 456 kts | 173° |
| 2026-04-24 04:58 | 41.80223 | -120.60080 | 35083 ft | 455 kts | 173° |
| 2026-04-24 04:59 | 41.74037 | -120.58632 | 35086 ft | 454 kts | 173° |
| 2026-04-24 04:59 | 41.67811 | -120.57177 | 35087 ft | 454 kts | 173° |
| 2026-04-24 05:00 | 41.61594 | -120.55725 | 35077 ft | 453 kts | 173° |
| 2026-04-24 05:00 | 41.55383 | -120.54280 | 35090 ft | 453 kts | 173° |
| 2026-04-24 05:01 | 41.49206 | -120.52846 | 35087 ft | 454 kts | 173° |
| 2026-04-24 05:01 | 41.42984 | -120.51404 | 35086 ft | 454 kts | 173° |
| 2026-04-24 05:02 | 41.36750 | -120.49961 | 35082 ft | 455 kts | 174° |
| 2026-04-24 05:02 | 41.30521 | -120.48521 | 35084 ft | 455 kts | 174° |
| 2026-04-24 05:03 | 41.24317 | -120.47090 | 35083 ft | 456 kts | 174° |
| 2026-04-24 05:03 | 41.18071 | -120.45653 | 35088 ft | 456 kts | 174° |
| 2026-04-24 05:04 | 41.11806 | -120.44213 | 35075 ft | 457 kts | 174° |
| 2026-04-24 05:04 | 41.05545 | -120.42778 | 35088 ft | 457 kts | 174° |
| 2026-04-24 05:05 | 40.99280 | -120.41312 | 35085 ft | 458 kts | 173° |
| 2026-04-24 05:05 | 40.93084 | -120.39460 | 35073 ft | 460 kts | 171° |
| 2026-04-24 05:06 | 40.86861 | -120.37451 | 35087 ft | 461 kts | 171° |
| 2026-04-24 05:06 | 40.80628 | -120.35470 | 35080 ft | 461 kts | 171° |
| 2026-04-24 05:07 | 40.74384 | -120.33525 | 35091 ft | 461 kts | 172° |
| 2026-04-24 05:07 | 40.68182 | -120.31609 | 35094 ft | 461 kts | 172° |
| 2026-04-24 05:08 | 40.61933 | -120.29682 | 35087 ft | 461 kts | 172° |
| 2026-04-24 05:08 | 40.55672 | -120.27761 | 35096 ft | 462 kts | 172° |
| 2026-04-24 05:09 | 40.49405 | -120.25838 | 35089 ft | 463 kts | 172° |
| 2026-04-24 05:09 | 40.43165 | -120.23922 | 35097 ft | 464 kts | 173° |
| 2026-04-24 05:10 | 40.36872 | -120.21996 | 35098 ft | 465 kts | 173° |
| 2026-04-24 05:10 | 40.30564 | -120.20071 | 35086 ft | 466 kts | 173° |
| 2026-04-24 05:11 | 40.24259 | -120.18149 | 35096 ft | 466 kts | 173° |
| 2026-04-24 05:11 | 40.17940 | -120.16227 | 35094 ft | 466 kts | 173° |
| 2026-04-24 05:12 | 40.11664 | -120.14322 | 35106 ft | 466 kts | 173° |
| 2026-04-24 05:12 | 40.05351 | -120.12408 | 35099 ft | 466 kts | 173° |
| 2026-04-24 05:13 | 39.95881 | -120.09544 | 35101 ft | 465 kts | 173° |
| 2026-04-24 05:14 | 39.89583 | -120.07646 | 35103 ft | 464 kts | 173° |
| 2026-04-24 05:14 | 39.83340 | -120.05767 | 35105 ft | 464 kts | 173° |
| 2026-04-24 05:15 | 39.77053 | -120.03877 | 35106 ft | 464 kts | 173° |
| 2026-04-24 05:15 | 39.70763 | -120.01991 | 35103 ft | 464 kts | 173° |
| 2026-04-24 05:16 | 39.64475 | -120.00109 | 35100 ft | 463 kts | 173° |
| 2026-04-24 05:16 | 39.58233 | -119.98244 | 35107 ft | 464 kts | 173° |
| 2026-04-24 05:17 | 39.51938 | -119.96367 | 35087 ft | 464 kts | 173° |
| 2026-04-24 05:17 | 39.45658 | -119.94496 | 35107 ft | 463 kts | 174° |
| 2026-04-24 05:18 | 39.39377 | -119.92629 | 35105 ft | 463 kts | 174° |
| 2026-04-24 05:18 | 39.33144 | -119.90781 | 35109 ft | 462 kts | 174° |
| 2026-04-24 05:19 | 39.26878 | -119.88927 | 35114 ft | 462 kts | 174° |
| 2026-04-24 05:19 | 39.22251 | -119.87558 | 35111 ft | 462 kts | 174° |
| 2026-04-24 05:20 | 39.19041 | -119.86611 | 35114 ft | 462 kts | 174° |
| 2026-04-24 05:20 | 39.14796 | -119.85359 | 35102 ft | 462 kts | 174° |
| 2026-04-24 05:21 | 39.08541 | -119.83517 | 35103 ft | 460 kts | 174° |
| 2026-04-24 05:21 | 39.02301 | -119.81683 | 35083 ft | 460 kts | 174° |
| 2026-04-24 05:22 | 38.96062 | -119.79853 | 35086 ft | 459 kts | 174° |
| 2026-04-24 05:22 | 38.89878 | -119.78042 | 35098 ft | 458 kts | 174° |
| 2026-04-24 05:23 | 38.83663 | -119.76225 | 35101 ft | 458 kts | 174° |
| 2026-04-24 05:23 | 38.77459 | -119.74414 | 35105 ft | 457 kts | 174° |
| 2026-04-24 05:24 | 38.71254 | -119.72606 | 35097 ft | 457 kts | 174° |
| 2026-04-24 05:24 | 38.65055 | -119.70804 | 35083 ft | 457 kts | 174° |
| 2026-04-24 05:25 | 38.58904 | -119.69018 | 35072 ft | 456 kts | 174° |
| 2026-04-24 05:25 | 38.52720 | -119.67226 | 35076 ft | 455 kts | 174° |
| 2026-04-24 05:26 | 38.46559 | -119.65444 | 35099 ft | 453 kts | 174° |
| 2026-04-24 05:26 | 38.40405 | -119.63668 | 35096 ft | 453 kts | 174° |
| 2026-04-24 05:27 | 38.34298 | -119.61907 | 35081 ft | 453 kts | 174° |
| 2026-04-24 05:27 | 38.28152 | -119.60141 | 35086 ft | 452 kts | 175° |
| 2026-04-24 05:28 | 38.22017 | -119.58400 | 35089 ft | 452 kts | 175° |
| 2026-04-24 05:28 | 38.15887 | -119.56663 | 35105 ft | 451 kts | 175° |
| 2026-04-24 05:29 | 38.09810 | -119.54944 | 35112 ft | 451 kts | 175° |
| 2026-04-24 05:29 | 38.03684 | -119.53211 | 35113 ft | 451 kts | 175° |
| 2026-04-24 05:30 | 37.97566 | -119.51482 | 35105 ft | 451 kts | 175° |
| 2026-04-24 05:30 | 37.91444 | -119.49755 | 35110 ft | 451 kts | 175° |
| 2026-04-24 05:31 | 37.85365 | -119.48045 | 35111 ft | 450 kts | 175° |
| 2026-04-24 05:31 | 37.79244 | -119.46327 | 35115 ft | 451 kts | 175° |
| 2026-04-24 05:32 | 37.73114 | -119.44608 | 35116 ft | 452 kts | 175° |
| 2026-04-24 05:32 | 37.66972 | -119.42888 | 35125 ft | 452 kts | 175° |
| 2026-04-24 05:33 | 37.60871 | -119.41182 | 35124 ft | 453 kts | 175° |
| 2026-04-24 05:33 | 37.54724 | -119.39467 | 35112 ft | 452 kts | 175° |
| 2026-04-24 05:34 | 37.45505 | -119.36899 | 35107 ft | 452 kts | 175° |
| 2026-04-24 05:34 | 37.39378 | -119.35196 | 35109 ft | 451 kts | 175° |
| 2026-04-24 05:35 | 37.33252 | -119.33496 | 35099 ft | 450 kts | 175° |
| 2026-04-24 05:35 | 37.27182 | -119.31814 | 35108 ft | 450 kts | 175° |
| 2026-04-24 05:36 | 37.21064 | -119.30125 | 35085 ft | 450 kts | 175° |
| 2026-04-24 05:36 | 37.14944 | -119.28435 | 35072 ft | 450 kts | 175° |
| 2026-04-24 05:37 | 37.08828 | -119.26749 | 35067 ft | 450 kts | 175° |
| 2026-04-24 05:37 | 37.02754 | -119.25078 | 35060 ft | 450 kts | 175° |
| 2026-04-24 05:38 | 36.96638 | -119.23399 | 35063 ft | 450 kts | 175° |
| 2026-04-24 05:38 | 36.90523 | -119.21721 | 35056 ft | 450 kts | 175° |
| 2026-04-24 05:39 | 36.84402 | -119.20044 | 35042 ft | 450 kts | 176° |
| 2026-04-24 05:39 | 36.78324 | -119.18383 | 35039 ft | 450 kts | 176° |
| 2026-04-24 05:40 | 36.72202 | -119.16712 | 35037 ft | 450 kts | 175° |
| 2026-04-24 05:40 | 36.66087 | -119.15046 | 35041 ft | 450 kts | 176° |
| 2026-04-24 05:41 | 36.59978 | -119.13384 | 35043 ft | 449 kts | 176° |
| 2026-04-24 05:41 | 36.53879 | -119.11728 | 35048 ft | 448 kts | 176° |
| 2026-04-24 05:42 | 36.47829 | -119.10088 | 35048 ft | 448 kts | 176° |
| 2026-04-24 05:42 | 36.41738 | -119.08440 | 35050 ft | 448 kts | 176° |
| 2026-04-24 05:43 | 36.35648 | -119.06793 | 35050 ft | 447 kts | 176° |
| 2026-04-24 05:43 | 36.29568 | -119.05152 | 35050 ft | 447 kts | 176° |
| 2026-04-24 05:44 | 36.23541 | -119.03527 | 35056 ft | 446 kts | 176° |
| 2026-04-24 05:44 | 36.17466 | -119.01894 | 35062 ft | 447 kts | 176° |
| 2026-04-24 05:45 | 36.11392 | -119.00263 | 35054 ft | 447 kts | 176° |
| 2026-04-24 05:45 | 36.05302 | -118.98635 | 35057 ft | 448 kts | 176° |
| 2026-04-24 05:46 | 35.99257 | -118.97024 | 35056 ft | 448 kts | 176° |
| 2026-04-24 05:46 | 35.93156 | -118.95400 | 35058 ft | 449 kts | 176° |
| 2026-04-24 05:47 | 35.87048 | -118.93773 | 35053 ft | 449 kts | 176° |
| 2026-04-24 05:47 | 35.80949 | -118.92153 | 35056 ft | 449 kts | 176° |
| 2026-04-24 05:48 | 35.74887 | -118.90547 | 35059 ft | 449 kts | 176° |
| 2026-04-24 05:48 | 35.68785 | -118.88930 | 35062 ft | 448 kts | 176° |
| 2026-04-24 05:49 | 35.62692 | -118.87317 | 35056 ft | 448 kts | 176° |
| 2026-04-24 05:49 | 35.56594 | -118.85706 | 35055 ft | 448 kts | 176° |
| 2026-04-24 05:50 | 35.50542 | -118.84111 | 35054 ft | 448 kts | 176° |
| 2026-04-24 05:50 | 35.44455 | -118.82511 | 35055 ft | 447 kts | 176° |
| 2026-04-24 05:51 | 35.38373 | -118.80912 | 35049 ft | 447 kts | 176° |
| 2026-04-24 05:51 | 35.32290 | -118.79316 | 35063 ft | 447 kts | 176° |
| 2026-04-24 05:52 | 35.26256 | -118.77736 | 35067 ft | 446 kts | 176° |
| 2026-04-24 05:52 | 35.20188 | -118.76148 | 35080 ft | 446 kts | 176° |
| 2026-04-24 05:53 | 35.14122 | -118.74564 | 35101 ft | 446 kts | 176° |
| 2026-04-24 05:53 | 35.08047 | -118.72982 | 35102 ft | 446 kts | 176° |
| 2026-04-24 05:54 | 35.01968 | -118.71398 | 35097 ft | 447 kts | 176° |
| 2026-04-24 05:54 | 34.95928 | -118.69827 | 35111 ft | 447 kts | 176° |
| 2026-04-24 05:55 | 34.89836 | -118.68247 | 35106 ft | 448 kts | 176° |
| 2026-04-24 05:55 | 34.83740 | -118.66667 | 35098 ft | 448 kts | 176° |
| 2026-04-24 05:56 | 34.77641 | -118.65087 | 35102 ft | 448 kts | 176° |
| 2026-04-24 05:56 | 34.71534 | -118.63507 | 35104 ft | 449 kts | 176° |
| 2026-04-24 05:57 | 34.65468 | -118.61942 | 35089 ft | 450 kts | 176° |
| 2026-04-24 05:57 | 34.59353 | -118.60309 | 35069 ft | 454 kts | 170° |
| 2026-04-24 05:58 | 34.56448 | -118.58666 | 35101 ft | 468 kts | 156° |
| 2026-04-24 05:58 | 34.53658 | -118.56625 | 35065 ft | 470 kts | 156° |
| 2026-04-24 05:58 | 34.48075 | -118.52504 | 35062 ft | 470 kts | 156° |
| 2026-04-24 05:59 | 34.42505 | -118.48473 | 35047 ft | 469 kts | 156° |
| 2026-04-24 05:59 | 34.36897 | -118.44477 | 35034 ft | 468 kts | 157° |
| 2026-04-24 06:00 | 34.31284 | -118.40498 | 35018 ft | 465 kts | 157° |
| 2026-04-24 06:00 | 34.28514 | -118.38534 | 34636 ft | 463 kts | 156° |
| 2026-04-24 06:00 | 34.25773 | -118.36590 | 34228 ft | 457 kts | 156° |
| 2026-04-24 06:01 | 34.23039 | -118.34654 | 33747 ft | 454 kts | 156° |
| 2026-04-24 06:01 | 34.20291 | -118.32709 | 33276 ft | 450 kts | 156° |
| 2026-04-24 06:01 | 34.17608 | -118.30812 | 32800 ft | 446 kts | 156° |
| 2026-04-24 06:01 | 34.14942 | -118.28930 | 32327 ft | 442 kts | 156° |
| 2026-04-24 06:02 | 34.12310 | -118.27073 | 31863 ft | 439 kts | 156° |
| 2026-04-24 06:02 | 34.09722 | -118.25248 | 31402 ft | 435 kts | 156° |
| 2026-04-24 06:02 | 34.07141 | -118.23430 | 30947 ft | 432 kts | 156° |
| 2026-04-24 06:02 | 34.04566 | -118.21618 | 30491 ft | 429 kts | 156° |
| 2026-04-24 06:03 | 34.01996 | -118.19809 | 30042 ft | 426 kts | 156° |
| 2026-04-24 06:03 | 33.99442 | -118.18014 | 29585 ft | 423 kts | 155° |
| 2026-04-24 06:03 | 33.96910 | -118.16235 | 29132 ft | 420 kts | 155° |
| 2026-04-24 06:03 | 33.94400 | -118.14472 | 28676 ft | 417 kts | 155° |
| 2026-04-24 06:04 | 33.91900 | -118.12717 | 28228 ft | 414 kts | 155° |
| 2026-04-24 06:04 | 33.89417 | -118.10975 | 27780 ft | 411 kts | 155° |
| 2026-04-24 06:04 | 33.86987 | -118.09272 | 27348 ft | 408 kts | 155° |
| 2026-04-24 06:04 | 33.84540 | -118.07559 | 26912 ft | 405 kts | 156° |
| 2026-04-24 06:05 | 33.82094 | -118.05899 | 26473 ft | 402 kts | 157° |
| 2026-04-24 06:05 | 33.79682 | -118.04304 | 26045 ft | 399 kts | 157° |
| 2026-04-24 06:05 | 33.77253 | -118.02709 | 25608 ft | 397 kts | 157° |
| 2026-04-24 06:05 | 33.74837 | -118.01123 | 25181 ft | 395 kts | 157° |
| 2026-04-24 06:06 | 33.72436 | -117.99543 | 24767 ft | 392 kts | 157° |
| 2026-04-24 06:06 | 33.70049 | -117.97970 | 24317 ft | 390 kts | 157° |
| 2026-04-24 06:06 | 33.67714 | -117.96429 | 23922 ft | 387 kts | 156° |
| 2026-04-24 06:06 | 33.65362 | -117.94876 | 23506 ft | 385 kts | 156° |
| 2026-04-24 06:07 | 33.63026 | -117.93333 | 23114 ft | 383 kts | 156° |
| 2026-04-24 06:07 | 33.60699 | -117.91799 | 22705 ft | 380 kts | 156° |
| 2026-04-24 06:07 | 33.58387 | -117.90275 | 22292 ft | 378 kts | 156° |
| 2026-04-24 06:07 | 33.56089 | -117.88762 | 21886 ft | 376 kts | 156° |
| 2026-04-24 06:08 | 33.53806 | -117.87251 | 21485 ft | 374 kts | 156° |
| 2026-04-24 06:08 | 33.51552 | -117.85717 | 21084 ft | 371 kts | 156° |
| 2026-04-24 06:08 | 33.49317 | -117.84184 | 20682 ft | 369 kts | 155° |
| 2026-04-24 06:08 | 33.47128 | -117.82688 | 20293 ft | 367 kts | 156° |
| 2026-04-24 06:09 | 33.44917 | -117.81181 | 19897 ft | 364 kts | 155° |
| 2026-04-24 06:09 | 33.42813 | -117.79476 | 19486 ft | 367 kts | 144° |
| 2026-04-24 06:09 | 33.40906 | -117.77443 | 19109 ft | 366 kts | 142° |
| 2026-04-24 06:09 | 33.39046 | -117.75370 | 18698 ft | 364 kts | 141° |
| 2026-04-24 06:10 | 33.37193 | -117.73312 | 18315 ft | 362 kts | 142° |
| 2026-04-24 06:10 | 33.35343 | -117.71287 | 17915 ft | 360 kts | 142° |
| 2026-04-24 06:10 | 33.33493 | -117.69287 | 17537 ft | 358 kts | 142° |
| 2026-04-24 06:11 | 33.29800 | -117.65338 | 16727 ft | 354 kts | 142° |
| 2026-04-24 06:11 | 33.27963 | -117.63381 | 16337 ft | 352 kts | 142° |
| 2026-04-24 06:11 | 33.26164 | -117.61465 | 15954 ft | 350 kts | 142° |
| 2026-04-24 06:11 | 33.24348 | -117.59536 | 15569 ft | 348 kts | 142° |
| 2026-04-24 06:12 | 33.22538 | -117.57627 | 15183 ft | 346 kts | 142° |
| 2026-04-24 06:12 | 33.20740 | -117.55737 | 14804 ft | 344 kts | 142° |
| 2026-04-24 06:12 | 33.18948 | -117.53853 | 14426 ft | 342 kts | 142° |
| 2026-04-24 06:12 | 33.17174 | -117.51987 | 14050 ft | 339 kts | 142° |
| 2026-04-24 06:13 | 33.15409 | -117.50130 | 13677 ft | 337 kts | 142° |
| 2026-04-24 06:13 | 33.13650 | -117.48291 | 13298 ft | 335 kts | 143° |
| 2026-04-24 06:13 | 33.11825 | -117.46661 | 12992 ft | 329 kts | 149° |
| 2026-04-24 06:13 | 33.09938 | -117.45138 | 12629 ft | 327 kts | 149° |
| 2026-04-24 06:14 | 33.08064 | -117.43620 | 12269 ft | 325 kts | 148° |
| 2026-04-24 06:14 | 33.06207 | -117.42093 | 11905 ft | 323 kts | 148° |
| 2026-04-24 06:14 | 33.04370 | -117.40569 | 11533 ft | 321 kts | 148° |
| 2026-04-24 06:14 | 33.02548 | -117.39043 | 11162 ft | 319 kts | 147° |
| 2026-04-24 06:15 | 33.00739 | -117.37523 | 10795 ft | 318 kts | 147° |
| 2026-04-24 06:15 | 32.98938 | -117.36011 | 10430 ft | 316 kts | 147° |
| 2026-04-24 06:15 | 32.97150 | -117.34510 | 10146 ft | 311 kts | 147° |
| 2026-04-24 06:15 | 32.95432 | -117.33069 | 10021 ft | 302 kts | 147° |
| 2026-04-24 06:16 | 32.93735 | -117.31648 | 9806 ft | 295 kts | 147° |
| 2026-04-24 06:16 | 32.92099 | -117.30278 | 9664 ft | 280 kts | 147° |
| 2026-04-24 06:16 | 32.90530 | -117.28970 | 9397 ft | 271 kts | 147° |
| 2026-04-24 06:16 | 32.89017 | -117.27712 | 9096 ft | 264 kts | 146° |
| 2026-04-24 06:17 | 32.87534 | -117.26480 | 8804 ft | 257 kts | 146° |
| 2026-04-24 06:17 | 32.86083 | -117.25274 | 8514 ft | 252 kts | 146° |
| 2026-04-24 06:17 | 32.84639 | -117.24077 | 8045 ft | 256 kts | 146° |
| 2026-04-24 06:17 | 32.83211 | -117.22891 | 7917 ft | 248 kts | 146° |
| 2026-04-24 06:18 | 32.81795 | -117.21673 | 7633 ft | 255 kts | 138° |
| 2026-04-24 06:18 | 32.80843 | -117.19883 | 7349 ft | 264 kts | 107° |
| 2026-04-24 06:18 | 32.80375 | -117.17777 | 7091 ft | 269 kts | 104° |
| 2026-04-24 06:18 | 32.79919 | -117.15639 | 6996 ft | 265 kts | 104° |
| 2026-04-24 06:19 | 32.79467 | -117.13559 | 6977 ft | 254 kts | 104° |
| 2026-04-24 06:19 | 32.79030 | -117.11579 | 6966 ft | 241 kts | 104° |
| 2026-04-24 06:19 | 32.78608 | -117.09676 | 6762 ft | 238 kts | 104° |
| 2026-04-24 06:19 | 32.78178 | -117.07747 | 6328 ft | 245 kts | 104° |
| 2026-04-24 06:20 | 32.77705 | -117.05812 | 6062 ft | 243 kts | 112° |
| 2026-04-24 06:20 | 32.77012 | -117.03997 | 6012 ft | 239 kts | 116° |
| 2026-04-24 06:20 | 32.76301 | -117.02248 | 5998 ft | 238 kts | 115° |
| 2026-04-24 06:20 | 32.75586 | -117.00464 | 5997 ft | 240 kts | 115° |
| 2026-04-24 06:21 | 32.74881 | -116.98662 | 5997 ft | 241 kts | 111° |
| 2026-04-24 06:21 | 32.74353 | -116.96777 | 5998 ft | 241 kts | 106° |
| 2026-04-24 06:21 | 32.73903 | -116.94847 | 5818 ft | 246 kts | 101° |
| 2026-04-24 06:21 | 32.73935 | -116.92842 | 5539 ft | 243 kts | 70° |
| 2026-04-24 06:22 | 32.74814 | -116.91193 | 5285 ft | 236 kts | 38° |
| 2026-04-24 06:22 | 32.76251 | -116.90370 | 5028 ft | 229 kts | 6° |
| 2026-04-24 06:22 | 32.77770 | -116.90592 | 4775 ft | 223 kts | 333° |
| 2026-04-24 06:22 | 32.78925 | -116.91767 | 4528 ft | 222 kts | 300° |
| 2026-04-24 06:23 | 32.79444 | -116.93473 | 4312 ft | 221 kts | 283° |
| 2026-04-24 06:23 | 32.79781 | -116.95264 | 4079 ft | 222 kts | 282° |
| 2026-04-24 06:23 | 32.79772 | -116.97076 | 3980 ft | 225 kts | 248° |
| 2026-04-24 06:23 | 32.78814 | -116.98477 | 4007 ft | 225 kts | 213° |
| 2026-04-24 06:24 | 32.77339 | -116.99053 | 3991 ft | 227 kts | 183° |
| 2026-04-24 06:24 | 32.75829 | -116.98673 | 3961 ft | 229 kts | 147° |
| 2026-04-24 06:24 | 32.74880 | -116.97210 | 3985 ft | 229 kts | 104° |
| 2026-04-24 06:24 | 32.74592 | -116.95406 | 3941 ft | 223 kts | 111° |
| 2026-04-24 06:25 | 32.73604 | -116.94122 | 3808 ft | 208 kts | 160° |
| 2026-04-24 06:25 | 32.72243 | -116.94084 | 3480 ft | 198 kts | 206° |
| 2026-04-24 06:25 | 32.71296 | -116.95211 | 3091 ft | 195 kts | 243° |
| 2026-04-24 06:25 | 32.70523 | -116.96508 | 2739 ft | 195 kts | 223° |
| 2026-04-24 06:26 | 32.69531 | -116.97639 | 2736 ft | 199 kts | 226° |
| 2026-04-24 06:26 | 32.68679 | -116.98919 | 2675 ft | 196 kts | 250° |
| 2026-04-24 06:26 | 32.68647 | -117.00421 | 2703 ft | 182 kts | 287° |
| 2026-04-24 06:26 | 32.69186 | -117.01745 | 2712 ft | 179 kts | 292° |
| 2026-04-24 06:27 | 32.69535 | -117.03164 | 2689 ft | 178 kts | 283° |
| 2026-04-24 06:27 | 32.69855 | -117.04556 | 2654 ft | 175 kts | 285° |
| 2026-04-24 06:27 | 32.70196 | -117.05963 | 2410 ft | 177 kts | 285° |
| 2026-04-24 06:27 | 32.70531 | -117.07334 | 2162 ft | 169 kts | 285° |
| 2026-04-24 06:28 | 32.70854 | -117.08662 | 2049 ft | 166 kts | 285° |
| 2026-04-24 06:28 | 32.71184 | -117.09964 | 2093 ft | 163 kts | 287° |
| 2026-04-24 06:28 | 32.71495 | -117.11237 | 1836 ft | 158 kts | 285° |
| 2026-04-24 06:28 | 32.71787 | -117.12468 | 1482 ft | 153 kts | 287° |
| 2026-04-24 06:29 | 32.72080 | -117.13674 | 1036 ft | 151 kts | 285° |
| 2026-04-24 06:29 | 32.72363 | -117.14853 | 786 ft | 149 kts | 286° |
| 2026-04-24 06:29 | 32.72651 | -117.16030 | 505 ft | 148 kts | 285° |
| 2026-04-24 06:29 | 32.72924 | -117.17194 | 220 ft | 145 kts | 287° |
| 2026-04-24 06:30 | 32.73205 | -117.18343 | 33 ft | 141 kts | 285° |
| 2026-04-24 06:30 | 32.73448 | -117.19337 | 22 ft | 99 kts | 286° |
| 2026-04-24 06:30 | 32.73578 | -117.19881 | 26 ft | 31 kts | 286° |
| 2026-04-24 06:30 | 32.73631 | -117.20100 | 22 ft | 12 kts | 286° |
| 2026-04-24 06:31 | 32.73627 | -117.20191 | 24 ft | 12 kts | 226° |
| 2026-04-24 06:31 | 32.73557 | -117.20225 | 23 ft | 9 kts | 196° |
| 2026-04-24 06:31 | 32.73514 | -117.20260 | 23 ft | 8 kts | 246° |
| 2026-04-24 06:31 | 32.73518 | -117.20322 | 23 ft | 8 kts | 284° |
| 2026-04-24 06:32 | 32.73530 | -117.20381 | 22 ft | 7 kts | 285° |
| 2026-04-24 06:32 | 32.73540 | -117.20439 | 23 ft | 7 kts | 273° |
| 2026-04-24 06:32 | 32.73526 | -117.20493 | 23 ft | 7 kts | 237° |
| 2026-04-24 06:32 | 32.73496 | -117.20535 | 23 ft | 7 kts | 224° |
| 2026-04-24 06:33 | 32.73456 | -117.20559 | 22 ft | 7 kts | 188° |
| 2026-04-24 06:33 | 32.73407 | -117.20561 | 22 ft | 7 kts | 181° |
| 2026-04-24 06:33 | 32.73358 | -117.20566 | 23 ft | 7 kts | 197° |
| 2026-04-24 06:33 | 32.73319 | -117.20596 | 22 ft | 6 kts | 213° |
| 2026-04-24 06:34 | 32.73286 | -117.20606 | 22 ft | 4 kts | 182° |
| 2026-04-24 06:34 | 32.73266 | -117.20606 | 23 ft | 1 kts | 181° |
| 2026-04-24 06:34 | 32.73261 | -117.20607 | 22 ft | 0 kts | 181° |